Language selection

My Weather Profile Weather Topics  | 

Hudson - Hudson Bay: Past 24 Hour Conditions

 

Moosonee Airport

02:00 AM EDT 21 September 2021
Disclaimer

This table is a summary of hourly weather conditions for the past 24 hours.
Please note that these observations might not always be representative of weather conditions over their associated marine area.

Date / Time
(EDT)
Wind(knots) Conditions Visibility(km) Pressure(kPa) Air tempC) Relative humidity(%) Dew pointC) Humidex
21 September 2021
2:00 S 12 gust 17 Light Rain 16 100.5 20 87 18 *
1:00 S 14 gust 22 Cloudy 16 100.6 23 66 16 28
0:00 S 13 gust 19 Cloudy 16 100.6 24 64 17 29
20 September 2021
23:00 S 14 gust 21 Cloudy 16 100.6 24 64 17 30
22:00 S 15 gust 20 Cloudy 16 100.7 25 64 18 31
21:00 S 14 gust 20 Mainly Clear 16 100.7 25 63 18 31
20:00 S 13 gust 20 Partly Cloudy 16 100.7 26 59 18 32
19:00 S 12 gust 17 Sunny 16 100.7 27 57 18 33
18:00 S 15 gust 20 Mainly Sunny 16 100.7 28 53 18 34
17:00 S 12 gust 21 Sunny 16 100.7 29 52 19 36
16:00 S 15 gust 21 Sunny 16 100.8 29 51 19 36
15:00 S 15 gust 23 Sunny 16 100.8 29 51 18 35
14:00 SSW 15 gust 22 Sunny 16 100.9 28 55 18 34
13:00 SSW 16 gust 23 Sunny 16 101.0 27 57 18 33
12:00 SSW 15 gust 20 Sunny 16 101.0 25 61 17 30
11:00 SSW 15 gust 22 Sunny 16 101.0 23 64 16 27
10:00 SSW 15 gust 22 Sunny 16 101.0 21 66 15 25
9:00 SSW 16 gust 22 Sunny 16 101.0 19 68 13 *
8:00 SSW 14 Partly Cloudy 16 101.0 18 72 13 *
7:00 SW 13 Mostly Cloudy 16 100.9 18 74 13 *
6:00 SSW 15 gust 20 Cloudy 16 100.9 19 69 13 *
5:00 SSW 13 gust 18 Partly Cloudy 16 100.8 19 69 13 *
4:00 SSW 13 gust 18 Clear 16 100.8 19 67 13 *
3:00 SSW 14 Partly Cloudy 16 100.8 19 66 12 *
2:00 SSW 15 gust 21 Mainly Clear 16 100.8 19 63 12 *

Zoom-in to make a selection

Map of Hudson - Hudson Bay marine weather areas Arviat Airport Baker Lake Airport Chesterfield Inlet Airport Coral Harbour Airport Rankin Inlet Airport Sanikiluaq Airport Whale Cove Airport Kinngait (Cape Dorset Airport) Iqaluit Airport Wager Bay Kimmirut Airport Churchill Airport Fort Severn Airport Peawanuck Airport Moosonee Airport Eastmain Airport La Grande Rivière Airport Waskaganish Airport Wemindji Airport Akulivik Airport Inukjuak Airport Ivujivik Airport Kuujjuarapik Airport Puvirnituq Airport Umiujaq Airport Aupaluk Airport Kangiqsujuaq Airport Kangirsuk Airport Kangiqsualujjuaq Airport Kuujjuaq Airport Quaqtaq Airport Salluit Airport Tasiujaq Airport Cape Kakkiviak
Legend:
buoy Buoy
land station Land Station

Hudson - Hudson Bay Area

Another Region

What we are doing

Date modified: